createdAt,value
2022-09-27T00:02:10.916Z,97437.22
2022-09-27T00:06:22.753Z,97442.72
2022-09-27T00:10:25.412Z,97441.03
2022-09-27T00:14:27.735Z,97437.88
2022-09-27T00:18:29.964Z,97432.38
2022-09-27T00:22:32.548Z,97435.91
2022-09-27T00:26:34.718Z,97434.59
2022-09-27T00:30:42.258Z,97437.91
2022-09-27T00:34:44.412Z,97429.72
2022-09-27T00:38:47.083Z,97420.06
2022-09-27T00:42:49.083Z,97405.69
2022-09-27T00:47:15.885Z,97405.06
2022-09-27T00:51:18.031Z,97393.38
2022-09-27T00:55:25.784Z,97388.34
2022-09-27T00:59:33.431Z,97382.34
2022-09-27T01:03:49.094Z,97372.75
2022-09-27T01:07:51.748Z,97379.94
2022-09-27T01:12:02.879Z,97376.50
2022-09-27T01:16:15.467Z,97379.97
2022-09-27T01:20:39.345Z,97367.88
2022-09-27T01:24:54.937Z,97370.75
2022-09-27T01:29:11.991Z,97372.97
2022-09-27T01:33:49.387Z,97375.63
2022-09-27T01:38:01.325Z,97365.72
2022-09-27T01:42:31.870Z,97362.34
2022-09-27T01:46:44.120Z,97358.75
2022-09-27T01:51:04.498Z,97348.50
2022-09-27T01:55:12.048Z,97349.78
2022-09-27T01:59:43.316Z,97345.66
2022-09-27T02:04:13.784Z,97346.44
2022-09-27T02:08:52.502Z,97343.97
2022-09-27T02:13:13.072Z,97337.50
2022-09-27T02:18:00.551Z,97333.91
2022-09-27T02:22:35.565Z,97341.44
2022-09-27T02:26:43.797Z,97324.25
2022-09-27T02:30:45.951Z,97317.00
2022-09-27T02:34:57.772Z,97313.69
2022-09-27T02:39:00.646Z,97308.50
2022-09-27T02:43:08.648Z,97307.41
2022-09-27T02:47:47.707Z,97295.75
2022-09-27T02:52:04.884Z,97299.22
2022-09-27T02:56:22.257Z,97296.06
2022-09-27T03:00:56.938Z,97292.59
2022-09-27T03:05:26.471Z,97292.28
2022-09-27T03:09:39.789Z,97294.00
2022-09-27T03:14:06.865Z,97289.13
2022-09-27T03:18:06.634Z,97293.66
2022-09-27T03:22:17.753Z,97288.03
2022-09-27T03:26:19.735Z,97276.69
2022-09-27T03:30:21.802Z,97256.53
2022-09-27T03:34:23.822Z,97245.84
2022-09-27T03:38:26.489Z,97258.75
2022-09-27T03:42:28.540Z,97252.09
2022-09-27T03:46:30.891Z,97230.41
2022-09-27T03:50:33.247Z,97220.50
2022-09-27T03:54:35.262Z,97235.28
2022-09-27T03:58:37.312Z,97221.28
2022-09-27T04:02:40.824Z,97222.72
2022-09-27T04:07:12.068Z,97244.50
2022-09-27T04:11:15.384Z,97240.69
2022-09-27T04:15:21.255Z,97246.66
2022-09-27T04:19:26.506Z,97260.47
2022-09-27T04:23:39.460Z,97261.66
2022-09-27T04:27:46.439Z,97247.22
2022-09-27T04:31:49.448Z,97260.84
2022-09-27T04:36:28.566Z,97243.44
2022-09-27T04:40:37.276Z,97246.44
2022-09-27T04:44:39.435Z,97233.84
2022-09-27T04:48:41.849Z,97238.44
2022-09-27T04:52:44.243Z,97235.34
2022-09-27T04:56:46.225Z,97228.66
2022-09-27T05:00:49.180Z,97228.03
2022-09-27T05:05:15.984Z,97236.72
2022-09-27T05:09:20.075Z,97241.34
2022-09-27T05:13:24.993Z,97240.31
2022-09-27T05:17:27.734Z,97239.69
2022-09-27T05:21:48.832Z,97241.31
2022-09-27T05:25:51.034Z,97236.72
2022-09-27T05:29:54.522Z,97227.78
2022-09-27T05:34:03.052Z,97239.41
2022-09-27T05:38:14.176Z,97239.69
2022-09-27T05:42:21.616Z,97218.88
2022-09-27T05:46:25.675Z,97229.13
2022-09-27T05:50:29.844Z,97225.09
2022-09-27T05:54:36.360Z,97212.22
2022-09-27T05:58:42.293Z,97222.47
2022-09-27T06:03:02.003Z,97216.91
2022-09-27T06:07:39.534Z,97224.06
2022-09-27T06:11:46.603Z,97226.06
2022-09-27T06:15:53.166Z,97219.69
2022-09-27T06:19:55.925Z,97216.72
2022-09-27T06:24:02.127Z,97216.06
2022-09-27T06:28:11.909Z,97226.63
2022-09-27T06:32:19.353Z,97225.84
2022-09-27T06:36:33.386Z,97230.69
2022-09-27T06:40:36.403Z,97223.03
2022-09-27T06:45:05.065Z,97216.78
2022-09-27T06:49:10.398Z,97217.66
2022-09-27T06:53:15.648Z,97215.69
2022-09-27T06:57:37.928Z,97223.06
2022-09-27T07:01:41.285Z,97216.03
2022-09-27T07:06:05.482Z,97229.75
2022-09-27T07:10:19.320Z,97237.63
2022-09-27T07:14:27.798Z,97234.19
2022-09-27T07:18:50.859Z,97243.03
2022-09-27T07:23:11.191Z,97223.00
2022-09-27T07:27:16.004Z,97210.31
2022-09-27T07:31:19.320Z,97207.00
2022-09-27T07:35:23.998Z,97207.78
2022-09-27T07:39:26.875Z,97211.59
2022-09-27T07:43:29.072Z,97216.84
2022-09-27T07:47:33.374Z,97198.72
2022-09-27T07:51:41.276Z,97197.84
2022-09-27T07:56:03.803Z,97210.59
2022-09-27T08:00:12.470Z,97198.88
2022-09-27T08:04:17.382Z,97207.78
2022-09-27T08:08:20.368Z,97217.00
2022-09-27T08:12:25.277Z,97225.22
2022-09-27T08:16:28.269Z,97224.69
2022-09-27T08:20:50.506Z,97223.09
2022-09-27T08:25:18.251Z,97224.47
2022-09-27T08:29:41.770Z,97219.09
2022-09-27T08:33:44.045Z,97227.63
2022-09-27T08:37:54.255Z,97222.25
2022-09-27T08:42:18.818Z,97233.22
2022-09-27T08:46:54.099Z,97224.59
2022-09-27T08:50:57.996Z,97239.41
2022-09-27T08:55:04.635Z,97236.13
2022-09-27T08:59:22.516Z,97227.06
2022-09-27T09:03:35.602Z,97228.59
2022-09-27T09:07:53.127Z,97230.13
2022-09-27T09:12:43.190Z,97218.81
2022-09-27T09:17:04.926Z,97223.91
2022-09-27T09:21:35.223Z,97218.25
2022-09-27T09:26:10.051Z,97219.00
2022-09-27T09:30:34.898Z,97204.16
2022-09-27T09:34:43.452Z,97208.41
2022-09-27T09:38:51.055Z,97210.53
2022-09-27T09:43:02.322Z,97193.16
2022-09-27T09:47:15.388Z,97181.94
2022-09-27T09:51:22.827Z,97183.06
2022-09-27T09:55:36.478Z,97180.88
2022-09-27T09:59:45.303Z,97179.06
2022-09-27T10:03:47.999Z,97183.34
2022-09-27T10:07:53.073Z,97177.91
2022-09-27T10:11:56.010Z,97168.88
2022-09-27T10:16:09.201Z,97157.66
2022-09-27T10:20:21.737Z,97176.47
2022-09-27T10:24:25.570Z,97186.81
2022-09-27T10:28:47.496Z,97189.25
2022-09-27T10:33:07.937Z,97203.22
2022-09-27T10:37:24.268Z,97182.47
2022-09-27T10:41:45.545Z,97183.59
2022-09-27T10:46:13.368Z,97184.38
2022-09-27T10:50:45.769Z,97175.81
2022-09-27T10:55:14.810Z,97161.84
2022-09-27T10:59:18.818Z,97158.34
2022-09-27T11:03:21.258Z,97164.28
2022-09-27T11:07:23.594Z,97171.16
2022-09-27T11:11:39.046Z,97203.13
2022-09-27T11:16:11.157Z,97200.84
2022-09-27T11:20:39.871Z,97190.66
2022-09-27T11:25:26.328Z,97186.72
2022-09-27T11:29:51.967Z,97196.47
2022-09-27T11:34:54.251Z,97183.72
2022-09-27T11:39:05.225Z,97174.59
2022-09-27T11:43:20.675Z,97163.47
2022-09-27T11:47:34.100Z,97150.59
2022-09-27T11:51:55.174Z,97154.09
2022-09-27T11:56:19.002Z,97146.28
2022-09-27T12:00:24.536Z,97129.78
2022-09-27T12:05:20.629Z,97124.41
2022-09-27T12:09:36.408Z,97111.59
2022-09-27T12:13:51.945Z,97128.78
2022-09-27T12:18:00.652Z,97151.81
2022-09-27T12:34:54.516Z,97176.00
2022-09-27T12:39:06.246Z,97172.06
2022-09-27T12:43:33.658Z,97179.97
2022-09-27T12:47:59.554Z,97174.69
2022-09-27T12:52:09.333Z,97165.28
2022-09-27T12:56:42.608Z,97147.09
2022-09-27T13:01:16.005Z,97138.22
2022-09-27T13:05:39.979Z,97134.16
2022-09-27T13:09:49.592Z,97125.03
2022-09-27T13:14:02.385Z,97128.94
2022-09-27T13:18:30.536Z,97139.75
2022-09-27T13:22:43.415Z,97144.53
2022-09-27T13:27:45.004Z,97131.72
2022-09-27T13:32:25.132Z,97134.00
2022-09-27T13:36:47.789Z,97130.56
2022-09-27T13:41:17.765Z,97118.28
2022-09-27T13:45:55.345Z,97115.31
2022-09-27T13:50:13.932Z,97113.50
2022-09-27T13:54:51.315Z,97110.88
2022-09-27T13:59:06.513Z,97107.56
2022-09-27T14:03:28.997Z,97115.31
2022-09-27T14:07:42.562Z,97114.81
2022-09-27T14:11:56.817Z,97126.88
2022-09-27T14:16:05.194Z,97118.06
2022-09-27T14:20:35.668Z,97117.41
2022-09-27T14:24:46.319Z,97119.03
2022-09-27T14:29:16.746Z,97129.91
2022-09-27T14:38:37.551Z,97125.41
2022-09-27T14:43:02.182Z,97120.59
2022-09-27T14:47:10.078Z,97127.38
2022-09-27T14:51:38.538Z,97133.47
2022-09-27T14:55:45.835Z,97143.59
2022-09-27T14:59:51.587Z,97142.28
2022-09-27T15:03:53.781Z,97147.66
2022-09-27T15:08:02.057Z,97149.31
2022-09-27T15:12:05.494Z,97156.03
2022-09-27T15:16:20.385Z,97165.25
2022-09-27T15:20:35.302Z,97165.31
2022-09-27T15:24:37.385Z,97158.34
2022-09-27T15:28:44.186Z,97163.75
2022-09-27T15:32:56.047Z,97169.13
2022-09-27T15:37:25.733Z,97165.41
2022-09-27T15:42:07.478Z,97167.75
2022-09-27T15:46:26.289Z,97172.56
2022-09-27T15:50:30.468Z,97172.19
2022-09-27T15:54:34.991Z,97162.78
2022-09-27T15:58:37.498Z,97165.41
2022-09-27T16:02:40.947Z,97160.69
2022-09-27T16:06:44.269Z,97159.41
2022-09-27T16:10:51.669Z,97162.38
2022-09-27T16:14:53.714Z,97168.53
2022-09-27T16:18:56.158Z,97173.66
2022-09-27T16:22:58.518Z,97170.97
2022-09-27T16:27:00.635Z,97175.47
2022-09-27T16:31:05.057Z,97179.91
2022-09-27T16:35:07.398Z,97166.94
2022-09-27T16:39:13.757Z,97165.09
2022-09-27T16:43:16.672Z,97168.69
2022-09-27T16:47:18.818Z,97166.75
2022-09-27T16:51:40.440Z,97171.50
2022-09-27T16:55:42.607Z,97173.34
2022-09-27T16:59:46.289Z,97182.56
2022-09-27T17:03:54.446Z,97183.47
2022-09-27T17:07:59.221Z,97180.78
2022-09-27T17:12:01.557Z,97180.81
2022-09-27T17:16:05.465Z,97187.75
2022-09-27T17:20:08.431Z,97183.56
2022-09-27T17:24:11.015Z,97192.84
2022-09-27T17:28:13.154Z,97195.75
2022-09-27T17:32:15.323Z,97194.91
2022-09-27T17:36:22.842Z,97198.34
2022-09-27T17:40:26.444Z,97203.84
2022-09-27T17:44:28.742Z,97203.78
2022-09-27T17:48:49.360Z,97220.16
2022-09-27T17:52:54.383Z,97220.16
2022-09-27T17:56:58.076Z,97227.72
2022-09-27T18:01:07.869Z,97238.94
2022-09-27T18:05:12.818Z,97237.44
2022-09-27T18:09:18.288Z,97235.25
2022-09-27T18:13:22.826Z,97244.53
2022-09-27T18:17:25.036Z,97268.41
2022-09-27T18:21:28.417Z,97234.94
2022-09-27T18:25:30.453Z,97253.75
2022-09-27T18:29:36.180Z,97267.97
2022-09-27T18:33:41.242Z,97280.00
2022-09-27T18:37:47.844Z,97277.91
2022-09-27T18:41:50.417Z,97288.50
2022-09-27T18:45:53.118Z,97289.88
2022-09-27T18:49:55.193Z,97292.09
2022-09-27T18:54:01.331Z,97300.50
2022-09-27T18:58:04.435Z,97310.47
2022-09-27T19:02:10.308Z,97319.75
2022-09-27T19:06:18.746Z,97315.03
2022-09-27T19:10:22.165Z,97324.56
2022-09-27T19:14:24.499Z,97315.72
2022-09-27T19:18:34.630Z,97315.41
2022-09-27T19:22:40.867Z,97316.56
2022-09-27T19:26:45.553Z,97327.34
2022-09-27T19:30:49.293Z,97331.28
2022-09-27T19:34:55.574Z,97329.38
2022-09-27T19:38:58.933Z,97337.16
2022-09-27T19:43:01.778Z,97338.53
2022-09-27T19:47:03.947Z,97338.22
2022-09-27T19:51:06.986Z,97332.59
2022-09-27T19:55:11.704Z,97324.56
2022-09-27T19:59:15.863Z,97325.22
2022-09-27T20:03:20.087Z,97331.69
2022-09-27T20:07:24.551Z,97336.84
2022-09-27T20:11:31.522Z,97338.94
2022-09-27T20:15:35.160Z,97346.28
2022-09-27T20:19:41.151Z,97341.28
2022-09-27T20:23:52.359Z,97341.94
2022-09-27T20:27:56.882Z,97341.13
2022-09-27T20:32:26.123Z,97343.19
2022-09-27T20:36:26.514Z,97346.78
2022-09-27T20:40:29.450Z,97357.31
2022-09-27T20:44:32.242Z,97360.47
2022-09-27T20:48:38.927Z,97357.63
2022-09-27T20:52:42.809Z,97355.09
2022-09-27T20:56:49.125Z,97347.53
2022-09-27T21:00:52.980Z,97353.53
2022-09-27T21:04:55.996Z,97349.88
2022-09-27T21:09:00.646Z,97360.06
2022-09-27T21:13:02.774Z,97370.91
2022-09-27T21:17:08.296Z,97369.31
2022-09-27T21:21:13.177Z,97370.03
2022-09-27T21:25:16.286Z,97374.47
2022-09-27T21:29:18.978Z,97376.19
2022-09-27T21:33:21.237Z,97375.13
2022-09-27T21:37:24.269Z,97365.69
2022-09-27T21:41:28.805Z,97363.53
2022-09-27T21:45:32.091Z,97369.66
2022-09-27T21:49:34.798Z,97380.59
2022-09-27T21:53:39.773Z,97383.88
2022-09-27T21:57:42.166Z,97383.78
2022-09-27T22:01:45.994Z,97378.13
2022-09-27T22:05:51.350Z,97386.84
2022-09-27T22:09:53.956Z,97386.72
2022-09-27T22:13:57.720Z,97399.53
2022-09-27T22:18:01.579Z,97401.91
2022-09-27T22:22:03.951Z,97401.91
2022-09-27T22:26:18.552Z,97403.91
2022-09-27T22:30:20.717Z,97404.28
2022-09-27T22:34:29.239Z,97393.06
2022-09-27T22:38:31.686Z,97395.31
2022-09-27T22:42:34.131Z,97397.41
2022-09-27T22:46:36.392Z,97386.84
2022-09-27T22:50:39.689Z,97386.44
2022-09-27T22:54:42.054Z,97385.78
2022-09-27T22:58:44.636Z,97387.13
2022-09-27T23:02:48.252Z,97391.47
2022-09-27T23:06:50.813Z,97402.34
2022-09-27T23:10:53.728Z,97390.66
2022-09-27T23:14:59.450Z,97393.13
2022-09-27T23:19:04.431Z,97397.03
2022-09-27T23:23:15.832Z,97392.50
2022-09-27T23:27:40.129Z,97396.28
2022-09-27T23:31:45.100Z,97398.75
2022-09-27T23:35:52.545Z,97403.91
2022-09-27T23:40:00.210Z,97393.00
2022-09-27T23:44:12.132Z,97389.88
2022-09-27T23:48:18.916Z,97382.38
2022-09-27T23:52:29.174Z,97381.09
